createdAt,value
2018-02-11T00:00:29.151Z,100106.23
2018-02-11T00:01:35.335Z,100111.37
2018-02-11T00:02:41.520Z,100106.98
2018-02-11T00:03:47.677Z,100103.42
2018-02-11T00:04:53.805Z,100106.91
2018-02-11T00:06:00.092Z,100096.62
2018-02-11T00:07:06.334Z,100103.78
2018-02-11T00:08:12.510Z,100106.64
2018-02-11T00:09:19.624Z,100103.23
2018-02-11T00:10:25.769Z,100101.56
2018-02-11T00:11:31.687Z,100105.95
2018-02-11T00:12:38.338Z,100101.70
2018-02-11T00:13:44.529Z,100102.66
2018-02-11T00:14:50.934Z,100102.60
2018-02-11T00:15:57.148Z,100098.23
2018-02-11T00:17:03.302Z,100098.34
2018-02-11T00:18:09.425Z,100097.91
2018-02-11T00:19:16.021Z,100093.97
2018-02-11T00:20:22.389Z,100092.25
2018-02-11T00:21:28.708Z,100093.16
2018-02-11T00:22:36.160Z,100095.59
2018-02-11T00:23:42.343Z,100096.94
2018-02-11T00:24:48.496Z,100093.22
2018-02-11T00:25:54.690Z,100092.79
2018-02-11T00:27:01.009Z,100095.27
2018-02-11T00:28:06.912Z,100092.79
2018-02-11T00:29:13.095Z,100090.52
2018-02-11T00:30:19.280Z,100088.03
2018-02-11T00:31:25.482Z,100094.03
2018-02-11T00:32:31.703Z,100086.62
2018-02-11T00:33:37.928Z,100085.39
2018-02-11T00:34:44.129Z,100084.41
2018-02-11T00:35:50.276Z,100082.73
2018-02-11T00:36:57.174Z,100084.41
2018-02-11T00:38:08.990Z,100078.36
2018-02-11T00:39:15.172Z,100081.98
2018-02-11T00:40:21.316Z,100076.20
2018-02-11T00:41:27.187Z,100078.36
2018-02-11T00:42:34.340Z,100076.80
2018-02-11T00:43:40.480Z,100077.61
2018-02-11T00:44:46.732Z,100067.06
2018-02-11T00:45:52.876Z,100075.40
2018-02-11T00:46:59.035Z,100069.72
2018-02-11T00:48:05.164Z,100070.95
2018-02-11T00:49:11.342Z,100069.17
2018-02-11T00:50:17.494Z,100063.50
2018-02-11T00:51:23.663Z,100065.77
2018-02-11T00:52:30.567Z,100066.69
2018-02-11T00:53:36.928Z,100064.35
2018-02-11T00:54:43.102Z,100060.95
2018-02-11T00:55:49.246Z,100059.00
2018-02-11T00:56:55.427Z,100059.80
2018-02-11T00:58:09.448Z,100051.16
2018-02-11T00:59:15.580Z,100051.64
2018-02-11T01:00:21.708Z,100050.84
2018-02-11T01:01:32.818Z,100047.87
2018-02-11T01:02:38.974Z,100048.57
2018-02-11T01:03:45.177Z,100050.30
2018-02-11T01:04:51.042Z,100040.84
2018-02-11T01:05:57.180Z,100040.86
2018-02-11T01:07:03.361Z,100046.02
2018-02-11T01:08:09.252Z,100041.28
2018-02-11T01:09:15.446Z,100038.25
2018-02-11T01:10:22.335Z,100034.74
2018-02-11T01:11:28.546Z,100038.20
2018-02-11T01:12:40.711Z,100031.30
2018-02-11T01:13:47.061Z,100031.83
2018-02-11T01:14:53.257Z,100031.52
2018-02-11T01:15:59.647Z,100030.73
2018-02-11T01:17:05.820Z,100025.00
2018-02-11T01:18:11.961Z,100023.21
2018-02-11T01:19:18.153Z,100025.38
2018-02-11T01:20:24.342Z,100025.80
2018-02-11T01:21:30.528Z,100020.25
2018-02-11T01:22:36.724Z,100023.64
2018-02-11T01:23:42.887Z,100027.09
2018-02-11T01:24:49.099Z,100027.08
2018-02-11T01:25:56.012Z,100024.55
2018-02-11T01:27:02.239Z,100025.00
2018-02-11T01:28:08.474Z,100025.80
2018-02-11T01:29:14.332Z,100021.48
2018-02-11T01:30:20.509Z,100022.84
2018-02-11T01:31:26.686Z,100014.51
2018-02-11T01:32:32.876Z,100010.48
2018-02-11T01:33:39.976Z,100017.41
2018-02-11T01:34:46.466Z,100010.48
2018-02-11T01:35:52.646Z,100011.38
2018-02-11T01:36:58.835Z,100009.69
2018-02-11T01:38:05.050Z,100015.38
2018-02-11T01:39:11.292Z,100008.04
2018-02-11T01:40:17.454Z,100004.52
2018-02-11T01:41:23.273Z,100006.35
2018-02-11T01:42:29.427Z,100002.48
2018-02-11T01:43:35.549Z,99999.94
2018-02-11T01:44:41.754Z,100000.88
2018-02-11T01:45:47.896Z,99996.62
2018-02-11T01:46:54.916Z,99997.06
2018-02-11T01:48:01.152Z,99988.86
2018-02-11T01:49:07.334Z,99993.97
2018-02-11T01:50:15.660Z,99986.30
2018-02-11T01:51:21.842Z,99988.10
2018-02-11T01:52:27.996Z,99986.43
2018-02-11T01:53:34.176Z,99985.94
2018-02-11T01:54:40.343Z,99980.72
2018-02-11T01:55:46.518Z,99981.27
2018-02-11T01:56:52.682Z,99976.82
2018-02-11T01:57:59.108Z,99981.62
2018-02-11T01:59:05.256Z,99977.80
2018-02-11T02:00:11.058Z,99976.92
2018-02-11T02:01:17.262Z,99977.86
2018-02-11T02:02:22.384Z,99974.96
2018-02-11T02:03:28.618Z,99975.70
2018-02-11T02:04:34.794Z,99980.02
2018-02-11T02:05:40.921Z,99973.11
2018-02-11T02:06:47.146Z,99972.64
2018-02-11T02:07:53.364Z,99968.44
2018-02-11T02:08:59.590Z,99967.56
2018-02-11T02:10:05.825Z,99965.80
2018-02-11T02:11:11.689Z,99959.73
2018-02-11T02:12:18.058Z,99965.03
2018-02-11T02:13:25.128Z,99961.58
2018-02-11T02:14:31.359Z,99955.16
2018-02-11T02:15:37.521Z,99955.59
2018-02-11T02:16:43.729Z,99955.34
2018-02-11T02:17:49.938Z,99955.41
2018-02-11T02:18:56.089Z,99943.70
2018-02-11T02:20:03.076Z,99943.34
2018-02-11T02:21:09.224Z,99941.16
2018-02-11T02:22:15.140Z,99941.11
2018-02-11T02:23:21.579Z,99932.91
2018-02-11T02:24:27.758Z,99935.55
2018-02-11T02:25:33.979Z,99928.66
2018-02-11T02:26:40.168Z,99923.05
2018-02-11T02:27:46.292Z,99921.01
2018-02-11T02:28:52.464Z,99926.98
2018-02-11T02:29:58.604Z,99913.50
2018-02-11T02:31:04.755Z,99919.09
2018-02-11T02:32:10.976Z,99910.36
2018-02-11T02:33:17.107Z,99916.13
2018-02-11T02:34:23.282Z,99910.47
2018-02-11T02:35:29.472Z,99907.81
2018-02-11T02:36:35.616Z,99906.53
2018-02-11T02:37:41.832Z,99909.99
2018-02-11T02:38:48.031Z,99906.53
2018-02-11T02:39:54.237Z,99907.83
2018-02-11T02:41:00.412Z,99900.80
2018-02-11T02:42:06.563Z,99906.28
2018-02-11T02:43:12.759Z,99896.09
2018-02-11T02:44:18.916Z,99896.48
2018-02-11T02:45:24.785Z,99888.78
2018-02-11T02:46:30.984Z,99896.84
2018-02-11T02:47:37.124Z,99891.71
2018-02-11T02:48:43.260Z,99887.72
2018-02-11T02:49:49.439Z,99890.42
2018-02-11T02:50:55.556Z,99888.33
2018-02-11T02:52:01.712Z,99882.66
2018-02-11T02:53:07.864Z,99891.24
2018-02-11T02:54:14.033Z,99877.41
2018-02-11T02:55:21.145Z,99877.80
2018-02-11T02:56:27.284Z,99876.11
2018-02-11T02:57:33.425Z,99879.16
2018-02-11T02:58:39.617Z,99873.98
2018-02-11T02:59:45.767Z,99867.44
2018-02-11T03:00:51.944Z,99870.83
2018-02-11T03:01:58.168Z,99863.12
2018-02-11T03:03:04.331Z,99866.22
2018-02-11T03:04:10.893Z,99867.85
2018-02-11T03:05:17.133Z,99868.28
2018-02-11T03:06:22.995Z,99861.41
2018-02-11T03:07:29.168Z,99863.55
2018-02-11T03:08:35.396Z,99863.46
2018-02-11T03:09:41.524Z,99861.61
2018-02-11T03:10:48.585Z,99855.15
2018-02-11T03:11:54.766Z,99851.75
2018-02-11T03:13:01.097Z,99853.97
2018-02-11T03:14:12.502Z,99850.90
2018-02-11T03:15:18.738Z,99848.31
2018-02-11T03:16:25.120Z,99841.59
2018-02-11T03:17:31.288Z,99852.39
2018-02-11T03:18:37.482Z,99847.63
2018-02-11T03:19:43.596Z,99848.14
2018-02-11T03:20:49.909Z,99848.45
2018-02-11T03:21:56.724Z,99851.31
2018-02-11T03:23:02.849Z,99850.84
2018-02-11T03:24:09.601Z,99850.91
2018-02-11T03:25:17.681Z,99847.38
2018-02-11T03:26:26.497Z,99840.11
2018-02-11T03:27:33.918Z,99839.23
2018-02-11T03:28:41.341Z,99840.05
2018-02-11T03:29:49.915Z,99839.61
2018-02-11T03:30:58.728Z,99838.38
2018-02-11T03:32:05.884Z,99836.63
2018-02-11T03:33:13.563Z,99834.00
2018-02-11T03:34:20.646Z,99836.02
2018-02-11T03:35:26.828Z,99833.48
2018-02-11T03:36:32.996Z,99830.11
2018-02-11T03:37:38.935Z,99835.86
2018-02-11T03:38:45.787Z,99829.33
2018-02-11T03:39:52.168Z,99828.88
2018-02-11T03:40:58.521Z,99830.11
2018-02-11T03:42:04.727Z,99827.21
2018-02-11T03:43:10.976Z,99829.89
2018-02-11T03:44:17.158Z,99820.26
2018-02-11T03:45:23.612Z,99823.84
2018-02-11T03:46:30.431Z,99826.05
2018-02-11T03:47:36.561Z,99819.94
2018-02-11T03:48:43.006Z,99821.19
2018-02-11T03:49:49.186Z,99822.91
2018-02-11T03:50:55.361Z,99819.44
2018-02-11T03:52:02.966Z,99816.52
2018-02-11T03:53:09.089Z,99820.96
2018-02-11T03:54:15.265Z,99817.58
2018-02-11T03:55:21.432Z,99816.39
2018-02-11T03:56:27.636Z,99818.14
2018-02-11T03:57:34.848Z,99811.23
2018-02-11T03:58:40.995Z,99818.26
2018-02-11T03:59:47.168Z,99813.40
2018-02-11T04:00:53.300Z,99811.80
2018-02-11T04:01:59.565Z,99817.41
2018-02-11T04:03:05.568Z,99809.19
2018-02-11T04:04:11.740Z,99812.66
2018-02-11T04:05:18.823Z,99804.95
2018-02-11T04:06:25.153Z,99806.75
2018-02-11T04:07:31.326Z,99810.27
2018-02-11T04:08:37.540Z,99804.64
2018-02-11T04:09:49.736Z,99802.58
2018-02-11T04:10:55.967Z,99797.07
2018-02-11T04:12:02.260Z,99797.95
2018-02-11T04:13:08.387Z,99799.84
2018-02-11T04:14:14.514Z,99791.98
2018-02-11T04:15:20.477Z,99786.05
2018-02-11T04:16:27.536Z,99790.45
2018-02-11T04:17:33.751Z,99790.86
2018-02-11T04:18:39.566Z,99788.27
2018-02-11T04:19:45.689Z,99786.11
2018-02-11T04:20:51.810Z,99782.11
2018-02-11T04:21:58.863Z,99778.66
2018-02-11T04:23:05.147Z,99771.34
2018-02-11T04:24:11.280Z,99771.83
2018-02-11T04:25:17.389Z,99773.61
2018-02-11T04:26:23.562Z,99771.89
2018-02-11T04:27:29.828Z,99768.38
2018-02-11T04:28:36.001Z,99761.42
2018-02-11T04:29:42.120Z,99759.38
2018-02-11T04:30:48.277Z,99760.55
2018-02-11T04:31:54.583Z,99759.38
2018-02-11T04:33:00.784Z,99752.84
2018-02-11T04:34:06.933Z,99758.58
2018-02-11T04:35:13.099Z,99751.57
2018-02-11T04:36:19.277Z,99750.27
2018-02-11T04:37:25.463Z,99749.16
2018-02-11T04:38:31.363Z,99746.21
2018-02-11T04:39:37.532Z,99748.78
2018-02-11T04:40:43.723Z,99749.66
2018-02-11T04:41:49.861Z,99747.94
2018-02-11T04:42:56.064Z,99746.21
2018-02-11T04:44:02.319Z,99742.33
2018-02-11T04:45:08.530Z,99741.22
2018-02-11T04:46:15.610Z,99739.01
2018-02-11T04:47:21.737Z,99739.50
2018-02-11T04:48:28.004Z,99733.84
2018-02-11T04:49:34.315Z,99733.05
2018-02-11T04:50:40.457Z,99729.17
2018-02-11T04:51:46.599Z,99727.01
2018-02-11T04:52:52.382Z,99721.88
2018-02-11T04:53:58.588Z,99726.64
2018-02-11T04:55:04.784Z,99719.30
2018-02-11T04:56:10.693Z,99709.28
2018-02-11T04:57:16.909Z,99720.11
2018-02-11T04:58:23.126Z,99709.83
2018-02-11T04:59:29.368Z,99710.81
2018-02-11T05:00:35.496Z,99715.24
2018-02-11T05:01:41.662Z,99701.41
2018-02-11T05:02:47.803Z,99697.52
2018-02-11T05:03:54.000Z,99697.83
2018-02-11T05:05:00.920Z,99694.94
2018-02-11T05:06:07.164Z,99696.71
2018-02-11T05:07:13.280Z,99697.14
2018-02-11T05:08:19.411Z,99698.02
2018-02-11T05:09:25.642Z,99698.92
2018-02-11T05:10:32.709Z,99695.91
2018-02-11T05:11:38.870Z,99699.18
2018-02-11T05:12:45.051Z,99695.30
2018-02-11T05:13:51.361Z,99689.21
2018-02-11T05:14:57.546Z,99693.98
2018-02-11T05:16:03.746Z,99687.98
2018-02-11T05:17:11.767Z,99685.32
2018-02-11T05:18:17.897Z,99682.91
2018-02-11T05:19:24.024Z,99677.19
2018-02-11T05:20:30.397Z,99678.13
2018-02-11T05:21:36.533Z,99674.36
2018-02-11T05:22:42.704Z,99670.92
2018-02-11T05:23:48.897Z,99669.76
2018-02-11T05:24:55.225Z,99668.40
2018-02-11T05:26:01.385Z,99668.34
2018-02-11T05:27:07.527Z,99663.09
2018-02-11T05:28:13.667Z,99657.56
2018-02-11T05:29:19.801Z,99660.95
2018-02-11T05:30:26.020Z,99653.24
2018-02-11T05:31:32.240Z,99650.16
2018-02-11T05:32:42.316Z,99647.64
2018-02-11T05:33:48.466Z,99651.52
2018-02-11T05:34:54.683Z,99647.59
2018-02-11T05:36:01.200Z,99645.79
2018-02-11T05:37:07.360Z,99650.39
2018-02-11T05:38:13.507Z,99649.19
2018-02-11T05:39:19.670Z,99644.50
2018-02-11T05:40:26.804Z,99642.42
2018-02-11T05:41:33.095Z,99647.95
2018-02-11T05:42:39.243Z,99643.30
2018-02-11T05:43:45.380Z,99641.22
2018-02-11T05:44:52.461Z,99642.13
2018-02-11T05:45:58.672Z,99643.66
2018-02-11T05:47:04.905Z,99633.80
2018-02-11T05:48:11.276Z,99634.97
2018-02-11T05:49:17.413Z,99635.27
2018-02-11T05:50:23.599Z,99629.00
2018-02-11T05:51:29.810Z,99626.82
2018-02-11T05:52:36.018Z,99629.77
2018-02-11T05:53:42.147Z,99625.91
2018-02-11T05:54:48.328Z,99619.89
2018-02-11T05:55:54.464Z,99622.31
2018-02-11T05:57:00.645Z,99615.48
2018-02-11T05:58:06.830Z,99618.88
2018-02-11T05:59:13.935Z,99613.70
2018-02-11T06:00:20.115Z,99613.28
2018-02-11T06:01:26.296Z,99606.38
2018-02-11T06:02:32.529Z,99608.55
2018-02-11T06:03:38.669Z,99609.47
2018-02-11T06:04:44.808Z,99601.28
2018-02-11T06:05:51.073Z,99599.48
2018-02-11T06:06:57.458Z,99598.06
2018-02-11T06:08:03.625Z,99590.44
2018-02-11T06:09:09.761Z,99589.98
2018-02-11T06:10:16.909Z,99588.98
2018-02-11T06:11:23.120Z,99596.31
2018-02-11T06:12:29.285Z,99591.58
2018-02-11T06:13:35.516Z,99587.35
2018-02-11T06:14:41.664Z,99589.13
2018-02-11T06:15:47.847Z,99590.78
2018-02-11T06:16:54.090Z,99583.83
2018-02-11T06:18:00.832Z,99585.59
2018-02-11T06:19:07.044Z,99579.15
2018-02-11T06:20:13.232Z,99580.14
2018-02-11T06:21:19.392Z,99576.19
2018-02-11T06:22:25.570Z,99579.66
2018-02-11T06:23:31.734Z,99572.25
2018-02-11T06:24:37.916Z,99576.98
2018-02-11T06:25:44.056Z,99576.01
2018-02-11T06:26:50.284Z,99570.73
2018-02-11T06:27:56.468Z,99577.78
2018-02-11T06:29:06.668Z,99567.87
2018-02-11T06:30:12.836Z,99568.38
2018-02-11T06:31:19.953Z,99564.84
2018-02-11T06:32:26.100Z,99567.36
2018-02-11T06:33:32.320Z,99563.08
2018-02-11T06:34:38.221Z,99564.80
2018-02-11T06:35:44.385Z,99555.36
2018-02-11T06:36:50.603Z,99558.03
2018-02-11T06:38:02.028Z,99555.86
2018-02-11T06:39:13.129Z,99552.84
2018-02-11T06:40:19.253Z,99551.40
2018-02-11T06:41:25.469Z,99548.03
2018-02-11T06:42:32.636Z,99548.45
2018-02-11T06:43:38.816Z,99549.68
2018-02-11T06:44:44.981Z,99551.27
2018-02-11T06:45:51.198Z,99550.91
2018-02-11T06:46:57.473Z,99548.40
2018-02-11T06:48:04.207Z,99545.25
2018-02-11T06:49:10.532Z,99547.37
2018-02-11T06:50:16.723Z,99541.02
2018-02-11T06:51:23.777Z,99538.84
2018-02-11T06:52:30.014Z,99535.87
2018-02-11T06:53:37.038Z,99530.95
2018-02-11T06:54:43.197Z,99533.02
2018-02-11T06:55:50.239Z,99534.44
2018-02-11T06:56:56.465Z,99536.45
2018-02-11T06:58:03.374Z,99536.37
2018-02-11T06:59:09.504Z,99532.16
2018-02-11T07:00:15.669Z,99536.02
2018-02-11T07:01:21.837Z,99531.55
2018-02-11T07:02:28.038Z,99525.47
2018-02-11T07:03:35.156Z,99533.23
2018-02-11T07:04:41.313Z,99529.27
2018-02-11T07:05:47.699Z,99527.08
2018-02-11T07:06:54.777Z,99526.23
2018-02-11T07:08:01.237Z,99524.86
2018-02-11T07:09:08.445Z,99523.62
2018-02-11T07:10:15.193Z,99517.45
2018-02-11T07:11:22.009Z,99516.73
2018-02-11T07:12:28.282Z,99514.94
2018-02-11T07:13:34.420Z,99509.31
2018-02-11T07:14:40.568Z,99509.76
2018-02-11T07:15:46.762Z,99511.06
2018-02-11T07:16:52.983Z,99514.95
2018-02-11T07:17:59.994Z,99513.12
2018-02-11T07:19:06.202Z,99509.66
2018-02-11T07:20:12.335Z,99501.47
2018-02-11T07:21:18.494Z,99499.08
2018-02-11T07:22:24.641Z,99500.20
2018-02-11T07:23:30.826Z,99491.31
2018-02-11T07:24:37.048Z,99496.14
2018-02-11T07:25:43.207Z,99493.97
2018-02-11T07:26:49.366Z,99488.22
2018-02-11T07:27:55.515Z,99485.13
2018-02-11T07:29:01.862Z,99479.59
2018-02-11T07:30:08.078Z,99480.25
2018-02-11T07:31:14.226Z,99481.89
2018-02-11T07:32:20.092Z,99476.63
2018-02-11T07:33:26.377Z,99477.06
2018-02-11T07:34:32.524Z,99472.70
2018-02-11T07:35:38.771Z,99474.13
2018-02-11T07:36:44.679Z,99473.61
2018-02-11T07:37:50.917Z,99472.42
2018-02-11T07:38:57.039Z,99471.02
2018-02-11T07:40:03.250Z,99466.14
2018-02-11T07:41:11.096Z,99460.53
2018-02-11T07:42:18.216Z,99465.34
2018-02-11T07:43:24.464Z,99465.75
2018-02-11T07:44:30.675Z,99456.96
2018-02-11T07:45:36.963Z,99455.23
2018-02-11T07:46:43.756Z,99452.16
2018-02-11T07:47:50.866Z,99449.10
2018-02-11T07:48:57.629Z,99446.45
2018-02-11T07:50:03.829Z,99434.34
2018-02-11T07:51:10.019Z,99445.51
2018-02-11T07:52:16.156Z,99440.92
2018-02-11T07:53:23.233Z,99438.83
2018-02-11T07:54:30.325Z,99440.38
2018-02-11T07:55:36.884Z,99439.61
2018-02-11T07:56:43.044Z,99442.63
2018-02-11T07:57:49.204Z,99439.06
2018-02-11T07:58:55.385Z,99433.80
2018-02-11T08:00:01.805Z,99441.05
2018-02-11T08:01:08.004Z,99440.98
2018-02-11T08:02:14.175Z,99430.19
2018-02-11T08:03:20.333Z,99431.81
2018-02-11T08:04:26.568Z,99437.79
2018-02-11T08:05:33.647Z,99434.61
2018-02-11T08:06:40.497Z,99430.63
2018-02-11T08:07:47.858Z,99432.58
2018-02-11T08:08:54.680Z,99431.70
2018-02-11T08:10:00.963Z,99434.59
2018-02-11T08:11:07.125Z,99431.98
2018-02-11T08:12:13.530Z,99434.25
2018-02-11T08:13:20.575Z,99427.70
2018-02-11T08:14:26.723Z,99423.64
2018-02-11T08:15:33.008Z,99427.81
2018-02-11T08:16:40.065Z,99428.71
2018-02-11T08:17:46.250Z,99423.56
2018-02-11T08:18:53.288Z,99415.95
2018-02-11T08:19:59.427Z,99413.76
2018-02-11T08:21:12.193Z,99415.86
2018-02-11T08:22:19.329Z,99415.83
2018-02-11T08:23:25.512Z,99412.41
2018-02-11T08:24:31.672Z,99417.83
2018-02-11T08:25:40.349Z,99415.81
2018-02-11T08:26:46.485Z,99410.95
2018-02-11T08:27:52.498Z,99403.59
2018-02-11T08:28:58.871Z,99395.06
2018-02-11T08:30:05.206Z,99392.83
2018-02-11T08:31:11.370Z,99383.25
2018-02-11T08:32:17.544Z,99387.02
2018-02-11T08:33:23.699Z,99392.66
2018-02-11T08:34:30.168Z,99382.05
2018-02-11T08:35:36.703Z,99376.50
2018-02-11T08:36:43.111Z,99372.52
2018-02-11T08:37:49.646Z,99374.79
2018-02-11T08:38:56.241Z,99369.11
2018-02-11T08:40:02.718Z,99365.72
2018-02-11T08:41:09.212Z,99368.52
2018-02-11T08:42:16.430Z,99364.12
2018-02-11T08:43:23.130Z,99368.56
2018-02-11T08:44:30.313Z,99361.53
2018-02-11T08:45:36.648Z,99358.02
2018-02-11T08:46:43.834Z,99356.81
2018-02-11T08:47:49.815Z,99353.14
2018-02-11T08:48:55.996Z,99354.13
2018-02-11T08:50:02.516Z,99354.33
2018-02-11T08:51:08.664Z,99348.53
2018-02-11T08:52:14.836Z,99354.90
2018-02-11T08:53:20.977Z,99346.56
2018-02-11T08:54:27.379Z,99343.52
2018-02-11T08:55:34.476Z,99345.84
2018-02-11T08:56:40.664Z,99345.39
2018-02-11T08:57:46.896Z,99340.98
2018-02-11T08:58:53.293Z,99336.64
2018-02-11T08:59:59.500Z,99341.14
2018-02-11T09:01:05.664Z,99349.71
2018-02-11T09:02:11.832Z,99339.47
2018-02-11T09:03:17.966Z,99343.55
2018-02-11T09:04:24.137Z,99339.80
2018-02-11T09:05:30.292Z,99337.94
2018-02-11T09:06:36.706Z,99336.49
2018-02-11T09:07:42.862Z,99330.13
2018-02-11T09:08:56.716Z,99327.22
2018-02-11T09:10:03.308Z,99320.97
2018-02-11T09:11:09.789Z,99321.58
2018-02-11T09:12:15.950Z,99318.80
2018-02-11T09:13:22.124Z,99316.22
2018-02-11T09:14:28.314Z,99311.23
2018-02-11T09:15:34.623Z,99312.00
2018-02-11T09:16:40.842Z,99308.11
2018-02-11T09:17:48.081Z,99307.00
2018-02-11T09:18:54.887Z,99302.50
2018-02-11T09:20:01.195Z,99297.49
2018-02-11T09:21:07.690Z,99291.34
2018-02-11T09:22:13.853Z,99293.81
2018-02-11T09:23:19.987Z,99288.20
2018-02-11T09:24:26.171Z,99290.35
2018-02-11T09:25:32.342Z,99284.98
2018-02-11T09:26:38.513Z,99288.84
2018-02-11T09:27:44.681Z,99284.53
2018-02-11T09:28:50.812Z,99281.16
2018-02-11T09:29:56.924Z,99282.93
2018-02-11T09:31:03.045Z,99285.48
2018-02-11T09:32:09.176Z,99283.97
2018-02-11T09:33:15.361Z,99285.39
2018-02-11T09:34:21.470Z,99284.95
2018-02-11T09:35:27.658Z,99278.55
2018-02-11T09:36:35.083Z,99277.27
2018-02-11T09:37:41.227Z,99271.98
2018-02-11T09:38:47.434Z,99276.73
2018-02-11T09:39:53.596Z,99272.72
2018-02-11T09:41:02.481Z,99266.33
2018-02-11T09:42:08.765Z,99267.34
2018-02-11T09:43:14.938Z,99263.89
2018-02-11T09:44:21.140Z,99264.33
2018-02-11T09:45:27.441Z,99256.98
2018-02-11T09:46:33.738Z,99257.95
2018-02-11T09:47:39.961Z,99258.05
2018-02-11T09:48:47.136Z,99253.05
2018-02-11T09:49:53.287Z,99249.74
2018-02-11T09:50:59.477Z,99254.37
2018-02-11T09:52:05.661Z,99259.11
2018-02-11T09:53:11.896Z,99255.09
2018-02-11T09:54:18.152Z,99253.50
2018-02-11T09:55:24.599Z,99252.40
2018-02-11T09:56:30.777Z,99258.62
2018-02-11T09:57:36.917Z,99263.06
2018-02-11T09:58:43.120Z,99264.73
2018-02-11T09:59:49.294Z,99264.69
2018-02-11T10:00:55.646Z,99262.69
2018-02-11T10:02:02.440Z,99260.09
2018-02-11T10:03:08.629Z,99254.05
2018-02-11T10:04:14.809Z,99252.09
2018-02-11T10:05:21.000Z,99256.65
2018-02-11T10:06:27.220Z,99261.51
2018-02-11T10:07:33.413Z,99250.54
2018-02-11T10:08:40.161Z,99258.62
2018-02-11T10:09:46.378Z,99261.44
2018-02-11T10:10:52.550Z,99253.92
2018-02-11T10:11:58.729Z,99256.38
2018-02-11T10:13:04.980Z,99252.44
2018-02-11T10:14:11.219Z,99249.65
2018-02-11T10:15:17.440Z,99259.66
2018-02-11T10:16:24.560Z,99247.30
2018-02-11T10:17:30.768Z,99251.19
2018-02-11T10:18:37.652Z,99252.94
2018-02-11T10:19:44.168Z,99246.52
2018-02-11T10:20:51.090Z,99249.12
2018-02-11T10:21:57.283Z,99248.30
2018-02-11T10:23:03.432Z,99246.09
2018-02-11T10:24:09.596Z,99249.89
2018-02-11T10:25:15.875Z,99250.07
2018-02-11T10:26:22.308Z,99241.95
2018-02-11T10:27:28.513Z,99240.34
2018-02-11T10:28:34.662Z,99239.17
2018-02-11T10:29:41.737Z,99242.33
2018-02-11T10:30:48.018Z,99240.23
2018-02-11T10:31:54.296Z,99239.06
2018-02-11T10:33:00.697Z,99243.56
2018-02-11T10:34:06.916Z,99239.63
2018-02-11T10:35:13.087Z,99238.95
2018-02-11T10:36:19.309Z,99226.98
2018-02-11T10:37:25.335Z,99223.87
2018-02-11T10:38:31.672Z,99227.92
2018-02-11T10:39:40.774Z,99224.80
2018-02-11T10:40:47.018Z,99226.39
2018-02-11T10:41:53.274Z,99213.33
2018-02-11T10:42:59.699Z,99212.69
2018-02-11T10:44:05.897Z,99211.58
2018-02-11T10:45:12.133Z,99203.36
2018-02-11T10:46:19.292Z,99204.03
2018-02-11T10:47:25.472Z,99204.85
2018-02-11T10:48:31.918Z,99198.20
2018-02-11T10:49:38.333Z,99193.53
2018-02-11T10:50:44.479Z,99197.62
2018-02-11T10:51:51.339Z,99188.05
2018-02-11T10:52:59.275Z,99192.13
2018-02-11T10:54:05.476Z,99187.88
2018-02-11T10:55:11.680Z,99190.67
2018-02-11T10:56:17.917Z,99194.08
2018-02-11T10:57:24.131Z,99188.04
2018-02-11T10:58:30.575Z,99185.89
2018-02-11T10:59:36.818Z,99178.36
2018-02-11T11:00:42.962Z,99186.83
2018-02-11T11:01:49.497Z,99184.57
2018-02-11T11:02:55.685Z,99178.86
2018-02-11T11:04:02.119Z,99181.24
2018-02-11T11:05:08.380Z,99180.95
2018-02-11T11:06:14.636Z,99181.90
2018-02-11T11:07:21.777Z,99172.55
2018-02-11T11:08:27.979Z,99177.32
2018-02-11T11:09:34.226Z,99174.42
2018-02-11T11:10:40.504Z,99167.27
2018-02-11T11:11:46.767Z,99177.74
2018-02-11T11:12:52.810Z,99175.84
2018-02-11T11:13:59.012Z,99166.34
2018-02-11T11:15:04.898Z,99170.22
2018-02-11T11:16:11.088Z,99178.53
2018-02-11T11:17:17.321Z,99179.14
2018-02-11T11:18:23.532Z,99177.02
2018-02-11T11:19:29.595Z,99171.66
2018-02-11T11:20:35.795Z,99165.16
2018-02-11T11:21:41.976Z,99169.41
2018-02-11T11:22:48.236Z,99166.66
2018-02-11T11:23:54.479Z,99159.40
2018-02-11T11:25:00.829Z,99172.14
2018-02-11T11:26:07.015Z,99164.59
2018-02-11T11:27:13.297Z,99163.47
2018-02-11T11:28:19.472Z,99158.98
2018-02-11T11:29:25.674Z,99164.63
2018-02-11T11:30:32.465Z,99161.58
2018-02-11T11:31:39.237Z,99169.15
2018-02-11T11:32:45.988Z,99168.02
2018-02-11T11:33:52.679Z,99170.58
2018-02-11T11:35:00.432Z,99172.10
2018-02-11T11:36:07.114Z,99167.77
2018-02-11T11:37:13.645Z,99170.95
2018-02-11T11:38:20.957Z,99170.20
2018-02-11T11:39:28.739Z,99172.35
2018-02-11T11:40:35.192Z,99177.97
2018-02-11T11:41:41.733Z,99168.02
2018-02-11T11:42:48.608Z,99169.07
2018-02-11T11:43:55.284Z,99186.73
2018-02-11T11:45:02.575Z,99171.13
2018-02-11T11:46:09.444Z,99171.80
2018-02-11T11:47:16.217Z,99172.86
2018-02-11T11:48:22.890Z,99174.23
2018-02-11T11:49:30.534Z,99180.09
2018-02-11T11:50:38.318Z,99189.17
2018-02-11T11:51:45.058Z,99190.89
2018-02-11T11:52:51.635Z,99182.72
2018-02-11T11:53:58.433Z,99183.50
2018-02-11T11:55:04.977Z,99173.25
2018-02-11T11:56:11.645Z,99181.97
2018-02-11T11:57:18.893Z,99179.37
2018-02-11T11:58:26.758Z,99177.70
2018-02-11T11:59:33.739Z,99185.84
2018-02-11T12:00:40.384Z,99174.94
2018-02-11T12:01:47.396Z,99174.16
2018-02-11T12:02:53.902Z,99174.75
2018-02-11T12:04:00.675Z,99179.73
2018-02-11T12:05:08.641Z,99172.15
2018-02-11T12:06:15.472Z,99164.22
2018-02-11T12:07:21.688Z,99166.41
2018-02-11T12:08:28.449Z,99167.22
2018-02-11T12:09:35.653Z,99158.60
2018-02-11T12:10:42.512Z,99155.36
2018-02-11T12:11:49.017Z,99149.39
2018-02-11T12:12:56.468Z,99152.80
2018-02-11T12:14:02.961Z,99143.16
2018-02-11T12:15:14.242Z,99145.76
2018-02-11T12:16:20.543Z,99137.66
2018-02-11T12:17:27.309Z,99146.98
2018-02-11T12:18:33.786Z,99142.05
2018-02-11T12:19:40.299Z,99141.20
2018-02-11T12:20:47.352Z,99130.27
2018-02-11T12:21:53.849Z,99137.68
2018-02-11T12:23:01.435Z,99129.67
2018-02-11T12:24:08.252Z,99133.31
2018-02-11T12:25:16.333Z,99124.97
2018-02-11T12:26:22.754Z,99121.12
2018-02-11T12:27:29.430Z,99121.00
2018-02-11T12:28:36.223Z,99123.59
2018-02-11T12:29:43.425Z,99112.84
2018-02-11T12:30:49.712Z,99122.27
2018-02-11T12:31:55.918Z,99126.80
2018-02-11T12:33:02.308Z,99133.69
2018-02-11T12:34:08.519Z,99127.72
2018-02-11T12:35:14.709Z,99123.65
2018-02-11T12:36:21.062Z,99129.22
2018-02-11T12:37:28.197Z,99124.65
2018-02-11T12:38:34.363Z,99125.55
2018-02-11T12:39:40.572Z,99124.83
2018-02-11T12:40:46.763Z,99124.31
2018-02-11T12:41:52.946Z,99125.41
2018-02-11T12:42:58.863Z,99128.36
2018-02-11T12:44:05.113Z,99125.16
2018-02-11T12:45:11.346Z,99125.86
2018-02-11T12:46:17.556Z,99130.16
2018-02-11T12:47:23.749Z,99127.61
2018-02-11T12:48:30.066Z,99129.36
2018-02-11T12:49:36.265Z,99130.25
2018-02-11T12:50:42.461Z,99126.16
2018-02-11T12:51:48.780Z,99115.48
2018-02-11T12:52:54.986Z,99127.50
2018-02-11T12:54:01.191Z,99128.80
2018-02-11T12:55:07.350Z,99122.48
2018-02-11T12:56:15.118Z,99118.86
2018-02-11T12:57:21.438Z,99121.30